createdAt,value
2023-07-06T00:02:04.607Z,100234.03
2023-07-06T00:05:08.744Z,100223.53
2023-07-06T00:08:17.774Z,100218.88
2023-07-06T00:11:21.737Z,100215.34
2023-07-06T00:14:25.823Z,100222.16
2023-07-06T00:17:29.220Z,100228.41
2023-07-06T00:20:39.389Z,100213.13
2023-07-06T00:23:44.974Z,100215.41
2023-07-06T00:26:48.358Z,100210.00
2023-07-06T00:29:58.182Z,100203.94
2023-07-06T00:33:01.340Z,100213.63
2023-07-06T00:36:05.690Z,100211.34
2023-07-06T00:39:13.980Z,100213.06
2023-07-06T00:42:18.961Z,100212.88
2023-07-06T00:45:21.976Z,100209.88
2023-07-06T00:48:38.027Z,100210.44
2023-07-06T00:51:42.277Z,100201.94
2023-07-06T00:54:47.695Z,100209.44
2023-07-06T00:57:57.242Z,100208.91
2023-07-06T01:01:06.108Z,100208.63
2023-07-06T01:04:13.164Z,100205.63
2023-07-06T01:07:23.631Z,100200.81
2023-07-06T01:10:27.050Z,100207.63
2023-07-06T01:13:30.563Z,100205.38
2023-07-06T01:16:44.468Z,100215.16
2023-07-06T01:20:15.868Z,100219.69
2023-07-06T01:24:01.447Z,100232.41
2023-07-06T01:27:22.528Z,100251.72
2023-07-06T01:30:28.734Z,100248.88
2023-07-06T01:33:44.596Z,100261.38
2023-07-06T01:36:51.297Z,100273.31
2023-07-06T01:39:54.947Z,100280.47
2023-07-06T01:43:00.781Z,100286.69
2023-07-06T01:46:04.751Z,100290.22
2023-07-06T01:49:08.507Z,100289.75
2023-07-06T01:52:32.553Z,100283.94
2023-07-06T01:55:48.810Z,100281.59
2023-07-06T01:59:03.222Z,100282.41
2023-07-06T02:02:08.797Z,100297.44
2023-07-06T02:05:14.385Z,100292.88
2023-07-06T02:08:19.264Z,100297.34
2023-07-06T02:11:26.222Z,100286.75
2023-07-06T02:14:32.799Z,100283.91
2023-07-06T02:17:37.520Z,100278.31
2023-07-06T02:20:40.617Z,100286.38
2023-07-06T02:23:44.461Z,100293.13
2023-07-06T02:26:47.708Z,100284.84
2023-07-06T02:29:51.622Z,100290.94
2023-07-06T02:32:54.770Z,100282.06
2023-07-06T02:35:58.796Z,100282.06
2023-07-06T02:39:04.667Z,100285.75
2023-07-06T02:42:09.001Z,100291.75
2023-07-06T02:45:13.302Z,100292.06
2023-07-06T02:48:19.180Z,100291.69
2023-07-06T02:51:23.838Z,100294.88
2023-07-06T02:54:27.849Z,100297.44
2023-07-06T02:57:33.129Z,100287.53
2023-07-06T03:00:36.359Z,100302.09
2023-07-06T03:03:39.802Z,100326.22
2023-07-06T03:06:43.396Z,100327.16
2023-07-06T03:09:46.625Z,100335.13
2023-07-06T03:12:50.433Z,100344.09
2023-07-06T03:15:53.995Z,100348.44
2023-07-06T03:18:57.243Z,100361.84
2023-07-06T03:22:01.027Z,100369.06
2023-07-06T03:25:06.466Z,100374.25
2023-07-06T03:28:09.634Z,100383.00
2023-07-06T03:31:15.546Z,100390.44
2023-07-06T03:34:20.411Z,100390.91
2023-07-06T03:37:24.701Z,100361.25
2023-07-06T03:40:30.636Z,100325.44
2023-07-06T03:43:35.019Z,100296.50
2023-07-06T03:46:38.384Z,100286.81
2023-07-06T03:49:42.661Z,100278.75
2023-07-06T03:52:46.183Z,100294.78
2023-07-06T03:55:55.308Z,100316.06
2023-07-06T03:58:59.005Z,100326.59
2023-07-06T04:02:02.418Z,100326.91
2023-07-06T04:05:05.896Z,100335.47
2023-07-06T04:08:14.112Z,100330.28
2023-07-06T04:11:18.170Z,100315.63
2023-07-06T04:14:30.725Z,100325.25
2023-07-06T04:17:34.028Z,100333.50
2023-07-06T04:20:37.415Z,100315.47
2023-07-06T04:23:42.257Z,100323.09
2023-07-06T04:26:47.935Z,100319.00
2023-07-06T04:29:51.388Z,100322.63
2023-07-06T04:32:54.692Z,100325.84
2023-07-06T04:35:58.600Z,100330.56
2023-07-06T04:39:04.400Z,100334.22
2023-07-06T04:42:08.571Z,100337.25
2023-07-06T04:45:13.161Z,100332.53
2023-07-06T04:48:18.213Z,100335.09
2023-07-06T04:51:21.640Z,100337.38
2023-07-06T04:54:25.948Z,100350.78
2023-07-06T04:57:30.800Z,100359.81
2023-07-06T05:00:38.382Z,100357.50
2023-07-06T05:03:43.041Z,100365.88
2023-07-06T05:06:47.054Z,100362.38
2023-07-06T05:09:50.920Z,100355.75
2023-07-06T05:12:54.772Z,100367.72
2023-07-06T05:15:58.351Z,100366.34
2023-07-06T05:19:02.510Z,100363.44
2023-07-06T05:22:06.212Z,100368.16
2023-07-06T05:25:12.868Z,100358.72
2023-07-06T05:28:20.708Z,100358.41
2023-07-06T05:31:24.971Z,100356.69
2023-07-06T05:34:28.203Z,100374.25
2023-07-06T05:37:36.142Z,100379.41
2023-07-06T05:40:42.063Z,100384.59
2023-07-06T05:43:45.279Z,100384.06
2023-07-06T05:46:48.863Z,100386.34
2023-07-06T05:49:52.346Z,100383.38
2023-07-06T05:52:55.789Z,100377.09
2023-07-06T05:56:00.898Z,100383.19
2023-07-06T05:59:05.627Z,100379.78
2023-07-06T06:02:10.693Z,100392.03
2023-07-06T06:05:15.487Z,100392.63
2023-07-06T06:08:19.762Z,100404.69
2023-07-06T06:11:23.855Z,100401.28
2023-07-06T06:14:26.949Z,100404.34
2023-07-06T06:17:30.353Z,100397.56
2023-07-06T06:20:33.883Z,100408.72
2023-07-06T06:23:37.384Z,100405.59
2023-07-06T06:26:43.742Z,100409.03
2023-07-06T06:29:48.008Z,100406.97
2023-07-06T06:32:51.181Z,100402.91
2023-07-06T06:39:00.483Z,100395.53
2023-07-06T06:42:05.634Z,100393.31
2023-07-06T06:45:10.339Z,100382.50
2023-07-06T06:48:13.352Z,100388.50
2023-07-06T06:51:16.824Z,100397.50
2023-07-06T06:54:20.542Z,100393.13
2023-07-06T06:57:23.935Z,100394.69
2023-07-06T07:00:27.386Z,100391.34
2023-07-06T07:03:31.238Z,100401.78
2023-07-06T07:06:34.499Z,100397.50
2023-07-06T07:09:38.268Z,100391.31
2023-07-06T07:12:43.674Z,100398.47
2023-07-06T07:15:46.818Z,100399.31
2023-07-06T07:18:50.155Z,100395.97
2023-07-06T07:21:53.539Z,100391.50
2023-07-06T07:24:59.821Z,100390.78
2023-07-06T07:28:03.782Z,100394.13
2023-07-06T07:31:12.683Z,100392.91
2023-07-06T07:34:15.933Z,100390.44
2023-07-06T07:37:20.283Z,100388.19
2023-07-06T07:40:24.250Z,100387.47
2023-07-06T07:43:30.444Z,100383.88
2023-07-06T07:46:33.748Z,100390.66
2023-07-06T07:49:38.731Z,100392.50
2023-07-06T07:52:42.204Z,100396.41
2023-07-06T07:55:45.958Z,100389.41
2023-07-06T07:58:50.183Z,100384.88
2023-07-06T08:01:56.257Z,100376.84
2023-07-06T08:05:03.341Z,100378.38
2023-07-06T08:08:07.448Z,100392.28
2023-07-06T08:11:14.215Z,100393.97
2023-07-06T08:14:35.304Z,100394.47
2023-07-06T08:17:38.443Z,100386.91
2023-07-06T08:21:04.241Z,100394.75
2023-07-06T08:24:06.115Z,100395.03
2023-07-06T08:27:11.102Z,100398.84
2023-07-06T08:30:14.484Z,100402.13
2023-07-06T08:33:17.973Z,100396.06
2023-07-06T08:36:21.928Z,100397.06
2023-07-06T08:39:26.048Z,100403.41
2023-07-06T08:42:29.969Z,100409.69
2023-07-06T08:45:43.793Z,100417.03
2023-07-06T08:48:47.511Z,100415.50
2023-07-06T08:51:53.166Z,100411.72
2023-07-06T08:54:56.246Z,100414.50
2023-07-06T08:57:59.518Z,100415.25
2023-07-06T09:01:12.454Z,100417.53
2023-07-06T09:04:23.259Z,100422.56
2023-07-06T09:07:39.596Z,100413.41
2023-07-06T09:10:43.321Z,100419.50
2023-07-06T09:13:49.126Z,100412.88
2023-07-06T09:17:00.211Z,100424.25
2023-07-06T09:20:05.050Z,100426.00
2023-07-06T09:23:16.037Z,100423.22
2023-07-06T09:26:33.720Z,100415.28
2023-07-06T09:29:42.599Z,100423.47
2023-07-06T09:32:46.182Z,100418.63
2023-07-06T09:35:58.370Z,100425.91
2023-07-06T09:39:05.551Z,100427.72
2023-07-06T09:42:15.509Z,100429.03
2023-07-06T09:45:27.941Z,100427.25
2023-07-06T09:48:40.086Z,100430.28
2023-07-06T09:51:51.978Z,100424.97
2023-07-06T09:55:14.884Z,100433.91
2023-07-06T09:58:25.785Z,100437.06
2023-07-06T10:01:55.182Z,100428.75
2023-07-06T10:05:37.932Z,100423.38
2023-07-06T10:09:17.976Z,100419.53
2023-07-06T10:12:47.237Z,100425.47
2023-07-06T10:16:04.346Z,100411.66
2023-07-06T10:19:13.730Z,100417.75
2023-07-06T10:22:49.595Z,100413.53
2023-07-06T10:26:08.978Z,100412.28
2023-07-06T10:29:23.304Z,100405.88
2023-07-06T10:32:38.824Z,100393.81
2023-07-06T10:35:46.979Z,100383.69
2023-07-06T10:38:51.582Z,100389.91
2023-07-06T10:42:06.752Z,100381.31
2023-07-06T10:45:36.225Z,100379.59
2023-07-06T10:48:42.488Z,100380.41
2023-07-06T10:51:51.823Z,100379.66
2023-07-06T10:54:57.022Z,100380.22
2023-07-06T10:58:16.165Z,100376.84
2023-07-06T11:01:21.314Z,100379.94
2023-07-06T11:04:41.468Z,100365.94
2023-07-06T11:07:52.559Z,100367.44
2023-07-06T11:10:58.105Z,100372.03
2023-07-06T11:14:24.661Z,100377.59
2023-07-06T11:17:37.887Z,100373.19
2023-07-06T11:20:43.389Z,100370.38
2023-07-06T11:23:51.947Z,100362.41
2023-07-06T11:26:58.997Z,100366.50
2023-07-06T11:30:07.735Z,100371.41
2023-07-06T11:33:22.004Z,100375.22
2023-07-06T11:36:40.793Z,100377.06
2023-07-06T11:39:57.584Z,100377.47
2023-07-06T11:43:19.437Z,100373.50
2023-07-06T11:47:03.610Z,100379.06
2023-07-06T11:50:13.685Z,100379.53
2023-07-06T11:53:31.155Z,100375.00
2023-07-06T11:56:54.682Z,100371.47
2023-07-06T12:00:23.262Z,100376.84
2023-07-06T12:03:28.072Z,100377.56
2023-07-06T12:06:34.450Z,100378.47
2023-07-06T12:09:38.092Z,100366.59
2023-07-06T12:12:42.558Z,100392.88
2023-07-06T12:15:48.733Z,100370.44
2023-07-06T12:19:13.403Z,100386.66
2023-07-06T12:22:18.620Z,100385.00
2023-07-06T12:25:26.108Z,100383.03
2023-07-06T12:28:33.395Z,100386.66
2023-07-06T12:31:38.957Z,100371.69
2023-07-06T12:34:45.592Z,100376.59
2023-07-06T12:37:49.077Z,100372.91
2023-07-06T12:41:15.804Z,100390.50
2023-07-06T12:44:23.290Z,100398.88
2023-07-06T12:47:33.974Z,100395.19
2023-07-06T12:50:42.849Z,100385.44
2023-07-06T12:53:45.987Z,100380.09
2023-07-06T12:57:00.858Z,100384.59
2023-07-06T13:00:18.475Z,100374.34
2023-07-06T13:03:23.210Z,100374.34
2023-07-06T13:06:28.030Z,100375.44
2023-07-06T13:09:36.031Z,100366.31
2023-07-06T13:12:48.657Z,100368.63
2023-07-06T13:15:59.295Z,100363.38
2023-07-06T13:19:03.285Z,100346.91
2023-07-06T13:22:06.708Z,100342.50
2023-07-06T13:25:21.908Z,100351.78
2023-07-06T13:28:25.217Z,100346.06
2023-07-06T13:31:34.394Z,100344.53
2023-07-06T13:34:51.393Z,100347.97
2023-07-06T13:37:55.058Z,100353.56
2023-07-06T13:40:59.492Z,100355.69
2023-07-06T13:44:04.230Z,100349.84
2023-07-06T13:47:12.758Z,100361.69
2023-07-06T13:50:16.102Z,100353.47
2023-07-06T13:53:19.428Z,100362.38
2023-07-06T13:56:22.810Z,100361.84
2023-07-06T13:59:26.228Z,100366.69
2023-07-06T14:02:29.534Z,100362.00
2023-07-06T14:05:33.072Z,100381.56
2023-07-06T14:08:36.411Z,100378.53
2023-07-06T14:11:40.816Z,100382.84
2023-07-06T14:14:44.208Z,100390.59
2023-07-06T14:17:49.338Z,100393.94
2023-07-06T14:20:53.493Z,100399.22
2023-07-06T14:23:56.527Z,100406.63
2023-07-06T14:26:59.791Z,100406.16
2023-07-06T14:30:04.881Z,100404.78
2023-07-06T14:33:09.376Z,100402.03
2023-07-06T14:36:13.829Z,100396.47
2023-07-06T14:39:19.177Z,100390.75
2023-07-06T14:42:22.235Z,100397.13
2023-07-06T14:45:26.384Z,100398.28
2023-07-06T14:48:30.977Z,100380.72
2023-07-06T14:51:34.515Z,100378.63
2023-07-06T14:54:38.820Z,100384.03
2023-07-06T14:57:42.053Z,100378.88
2023-07-06T15:00:45.337Z,100372.59
2023-07-06T15:03:48.515Z,100383.22
2023-07-06T15:06:51.985Z,100381.88
2023-07-06T15:09:55.998Z,100377.94
2023-07-06T15:12:59.310Z,100379.22
2023-07-06T15:16:02.604Z,100380.69
2023-07-06T15:19:06.034Z,100384.84
2023-07-06T15:22:09.838Z,100370.72
2023-07-06T15:25:13.304Z,100377.34
2023-07-06T15:28:16.380Z,100377.25
2023-07-06T15:31:24.802Z,100371.81
2023-07-06T15:34:28.744Z,100365.81
2023-07-06T15:37:31.997Z,100360.31
2023-07-06T15:40:35.337Z,100365.91
2023-07-06T15:43:38.623Z,100366.13
2023-07-06T15:46:41.637Z,100367.19
2023-07-06T15:49:45.323Z,100367.19
2023-07-06T15:52:48.501Z,100365.47
2023-07-06T15:56:02.943Z,100367.53
2023-07-06T15:59:10.315Z,100365.53
2023-07-06T16:02:13.434Z,100378.22
2023-07-06T16:05:16.995Z,100376.00
2023-07-06T16:08:22.528Z,100376.28
2023-07-06T16:11:29.251Z,100373.25
2023-07-06T16:14:32.502Z,100365.50
2023-07-06T16:17:35.656Z,100357.13
2023-07-06T16:20:39.048Z,100364.75
2023-07-06T16:23:47.188Z,100362.25
2023-07-06T16:26:50.540Z,100368.13
2023-07-06T16:29:54.617Z,100374.97
2023-07-06T16:32:58.282Z,100372.22
2023-07-06T16:36:02.042Z,100371.47
2023-07-06T16:39:05.927Z,100379.84
2023-07-06T16:42:09.950Z,100374.56
2023-07-06T16:45:13.441Z,100376.09
2023-07-06T16:48:17.570Z,100383.91
2023-07-06T16:51:21.021Z,100395.28
2023-07-06T16:54:24.547Z,100391.78
2023-07-06T16:57:27.653Z,100393.78
2023-07-06T17:00:31.821Z,100389.25
2023-07-06T17:03:35.576Z,100388.75
2023-07-06T17:06:38.759Z,100385.22
2023-07-06T17:09:42.112Z,100390.75
2023-07-06T17:12:45.153Z,100388.75
2023-07-06T17:15:51.060Z,100392.28
2023-07-06T17:18:54.329Z,100400.88
2023-07-06T17:21:57.301Z,100391.50
2023-07-06T17:25:02.833Z,100399.09
2023-07-06T17:28:06.895Z,100404.91
2023-07-06T17:31:15.107Z,100408.94
2023-07-06T17:34:18.488Z,100406.41
2023-07-06T17:37:21.758Z,100403.13
2023-07-06T17:40:25.056Z,100414.75
2023-07-06T17:43:29.105Z,100420.81
2023-07-06T17:46:32.776Z,100424.56
2023-07-06T17:49:36.014Z,100428.81
2023-07-06T17:52:39.210Z,100432.66
2023-07-06T17:55:47.292Z,100435.88
2023-07-06T17:58:50.825Z,100436.66
2023-07-06T18:01:53.801Z,100445.72
2023-07-06T18:04:57.044Z,100445.94
2023-07-06T18:08:00.556Z,100448.22
2023-07-06T18:11:05.460Z,100442.13
2023-07-06T18:14:08.727Z,100450.69
2023-07-06T18:17:11.924Z,100447.91
2023-07-06T18:20:17.259Z,100449.63
2023-07-06T18:23:20.456Z,100450.13
2023-07-06T18:26:23.761Z,100437.25
2023-07-06T18:29:26.903Z,100441.22
2023-07-06T18:32:30.376Z,100438.63
2023-07-06T18:35:35.231Z,100443.41
2023-07-06T18:38:39.484Z,100440.34
2023-07-06T18:41:42.759Z,100440.56
2023-07-06T18:45:01.699Z,100437.00
2023-07-06T18:48:06.016Z,100442.47
2023-07-06T18:51:09.275Z,100442.72
2023-07-06T18:54:12.511Z,100441.66
2023-07-06T18:57:19.287Z,100443.06
2023-07-06T19:00:22.661Z,100450.84
2023-07-06T19:03:26.245Z,100456.38
2023-07-06T19:06:30.857Z,100465.78
2023-07-06T19:09:36.029Z,100469.31
2023-07-06T19:12:39.570Z,100466.44
2023-07-06T19:15:44.765Z,100475.97
2023-07-06T19:18:48.264Z,100477.44
2023-07-06T19:21:51.970Z,100478.06
2023-07-06T19:24:55.138Z,100483.84
2023-07-06T19:27:58.585Z,100475.25
2023-07-06T19:31:02.018Z,100471.66
2023-07-06T19:34:05.771Z,100474.59
2023-07-06T19:37:09.375Z,100477.06
2023-07-06T19:40:13.159Z,100479.78
2023-07-06T19:43:16.732Z,100484.75
2023-07-06T19:46:22.164Z,100483.44
2023-07-06T19:49:26.426Z,100487.28
2023-07-06T19:52:31.546Z,100484.88
2023-07-06T19:55:36.985Z,100493.47
2023-07-06T19:58:40.605Z,100489.19
2023-07-06T20:01:44.626Z,100496.72
2023-07-06T20:04:49.291Z,100500.63
2023-07-06T20:07:54.070Z,100495.94
2023-07-06T20:11:00.612Z,100502.94
2023-07-06T20:14:04.667Z,100509.44
2023-07-06T20:17:08.252Z,100521.47
2023-07-06T20:20:11.869Z,100509.91
2023-07-06T20:23:16.255Z,100520.91
2023-07-06T20:26:19.718Z,100513.03
2023-07-06T20:29:26.254Z,100520.09
2023-07-06T20:32:29.811Z,100517.31
2023-07-06T20:35:32.995Z,100515.34
2023-07-06T20:38:36.621Z,100515.78
2023-07-06T20:41:39.905Z,100529.63
2023-07-06T20:44:43.452Z,100522.84
2023-07-06T20:47:46.925Z,100529.06
2023-07-06T20:50:50.091Z,100516.97
2023-07-06T20:53:53.359Z,100522.75
2023-07-06T20:56:56.662Z,100518.97
2023-07-06T20:59:59.974Z,100526.72
2023-07-06T21:03:03.192Z,100530.72
2023-07-06T21:06:06.854Z,100537.19
2023-07-06T21:09:10.771Z,100528.16
2023-07-06T21:12:14.582Z,100531.41
2023-07-06T21:15:18.244Z,100538.66
2023-07-06T21:18:21.377Z,100539.91
2023-07-06T21:21:24.463Z,100554.69
2023-07-06T21:24:28.053Z,100553.25
2023-07-06T21:27:31.358Z,100552.69
2023-07-06T21:30:34.816Z,100550.19
2023-07-06T21:33:38.618Z,100551.25
2023-07-06T21:36:43.681Z,100552.94
2023-07-06T21:39:47.215Z,100552.41
2023-07-06T21:42:50.372Z,100551.63
2023-07-06T21:45:54.346Z,100560.22
2023-07-06T21:48:59.254Z,100566.22
2023-07-06T21:52:02.955Z,100565.94
2023-07-06T21:55:06.604Z,100554.63
2023-07-06T21:58:10.059Z,100567.66
2023-07-06T22:01:15.407Z,100554.03
2023-07-06T22:04:20.262Z,100559.38
2023-07-06T22:07:23.587Z,100555.34
2023-07-06T22:10:26.591Z,100552.13
2023-07-06T22:13:29.756Z,100552.69
2023-07-06T22:16:33.341Z,100552.69
2023-07-06T22:19:36.608Z,100550.88
2023-07-06T22:22:39.853Z,100560.41
2023-07-06T22:25:43.299Z,100562.44
2023-07-06T22:28:46.713Z,100557.84
2023-07-06T22:31:49.975Z,100555.75
2023-07-06T22:34:53.221Z,100555.53
2023-07-06T22:37:56.275Z,100562.81
2023-07-06T22:40:59.438Z,100558.53
2023-07-06T22:44:03.069Z,100552.72
2023-07-06T22:47:07.238Z,100560.94
2023-07-06T22:50:10.594Z,100564.13
2023-07-06T22:53:14.061Z,100553.56
2023-07-06T22:56:17.401Z,100551.19
2023-07-06T22:59:20.756Z,100548.22
2023-07-06T23:02:24.228Z,100550.91
2023-07-06T23:05:27.903Z,100560.63
2023-07-06T23:08:31.495Z,100553.56
2023-07-06T23:11:35.285Z,100560.81
2023-07-06T23:14:38.403Z,100556.34
2023-07-06T23:17:42.078Z,100555.59
2023-07-06T23:20:45.896Z,100563.09
2023-07-06T23:23:49.783Z,100570.63
2023-07-06T23:26:53.138Z,100565.28
2023-07-06T23:29:58.241Z,100564.13
2023-07-06T23:33:01.670Z,100555.66
2023-07-06T23:36:05.575Z,100560.69
2023-07-06T23:39:08.625Z,100559.34
2023-07-06T23:42:11.867Z,100563.66
2023-07-06T23:45:15.607Z,100565.66
2023-07-06T23:48:20.404Z,100564.88
2023-07-06T23:51:24.771Z,100565.28
2023-07-06T23:54:29.407Z,100562.13
2023-07-06T23:57:32.868Z,100560.13
